createdAt,value
2017-11-07T00:00:33.608Z,72.51
2017-11-07T00:02:59.904Z,72.56
2017-11-07T00:05:26.420Z,73.48
2017-11-07T00:07:52.753Z,72.98
2017-11-07T00:10:19.066Z,73.25
2017-11-07T00:12:45.393Z,73.70
2017-11-07T00:15:11.851Z,73.55
2017-11-07T00:17:38.136Z,73.57
2017-11-07T00:20:04.467Z,73.67
2017-11-07T00:22:34.694Z,73.47
2017-11-07T00:25:01.761Z,73.41
2017-11-07T00:27:28.067Z,72.60
2017-11-07T00:29:55.169Z,72.91
2017-11-07T00:32:22.195Z,72.71
2017-11-07T00:34:48.529Z,72.76
2017-11-07T00:37:14.951Z,72.64
2017-11-07T00:39:42.026Z,72.78
2017-11-07T00:42:08.364Z,72.63
2017-11-07T00:44:34.666Z,72.73
2017-11-07T00:47:00.979Z,72.60
2017-11-07T00:49:28.032Z,72.87
2017-11-07T00:51:54.395Z,73.09
2017-11-07T00:54:20.745Z,72.75
2017-11-07T00:56:47.011Z,72.74
2017-11-07T00:59:13.311Z,73.04
2017-11-07T01:01:39.616Z,72.53
2017-11-07T01:04:05.905Z,72.51
2017-11-07T01:06:33.064Z,72.68
2017-11-07T01:09:00.109Z,72.81
2017-11-07T01:11:27.181Z,73.53
2017-11-07T01:13:53.462Z,73.31
2017-11-07T01:16:19.816Z,72.80
2017-11-07T01:18:46.939Z,72.87
2017-11-07T01:21:14.035Z,73.24
2017-11-07T01:23:40.317Z,73.22
2017-11-07T01:26:06.614Z,73.60
2017-11-07T01:28:32.916Z,73.56
2017-11-07T01:30:59.950Z,72.77
2017-11-07T01:33:27.019Z,73.17
2017-11-07T01:35:54.086Z,73.51
2017-11-07T01:38:20.387Z,73.36
2017-11-07T01:40:47.462Z,72.97
2017-11-07T01:43:13.823Z,72.94
2017-11-07T01:45:40.127Z,72.97
2017-11-07T01:48:06.419Z,73.17
2017-11-07T01:50:32.749Z,72.73
2017-11-07T01:52:59.049Z,72.60
2017-11-07T01:55:25.352Z,72.40
2017-11-07T01:57:51.706Z,73.25
2017-11-07T02:00:18.013Z,73.13
2017-11-07T02:02:44.331Z,73.35
2017-11-07T02:05:10.645Z,73.24
2017-11-07T02:07:37.684Z,73.08
2017-11-07T02:10:04.084Z,72.95
2017-11-07T02:12:30.401Z,72.74
2017-11-07T02:14:56.748Z,74.13
2017-11-07T02:17:23.047Z,73.88
2017-11-07T02:19:49.414Z,74.20
2017-11-07T02:22:15.720Z,74.35
2017-11-07T02:24:42.092Z,74.83
2017-11-07T02:27:08.445Z,75.04
2017-11-07T02:29:35.734Z,74.79
2017-11-07T02:32:02.125Z,74.64
2017-11-07T02:34:29.174Z,74.62
2017-11-07T02:36:56.221Z,75.29
2017-11-07T02:39:23.273Z,75.87
2017-11-07T02:41:50.315Z,75.92
2017-11-07T02:44:18.101Z,75.26
2017-11-07T02:46:44.411Z,75.01
2017-11-07T02:49:11.486Z,74.70
2017-11-07T02:51:37.787Z,74.55
2017-11-07T02:54:04.086Z,75.08
2017-11-07T02:56:30.379Z,75.52
2017-11-07T02:58:56.713Z,74.94
2017-11-07T03:01:23.064Z,74.66
2017-11-07T03:03:49.373Z,74.64
2017-11-07T03:06:15.684Z,75.19
2017-11-07T03:08:42.741Z,75.23
2017-11-07T03:11:09.742Z,74.98
2017-11-07T03:13:36.054Z,74.39
2017-11-07T03:16:02.428Z,74.03
2017-11-07T03:18:28.750Z,74.32
2017-11-07T03:20:55.065Z,73.65
2017-11-07T03:23:21.344Z,73.62
2017-11-07T03:25:48.373Z,73.80
2017-11-07T03:28:14.705Z,73.70
2017-11-07T03:30:41.725Z,73.60
2017-11-07T03:33:08.041Z,73.85
2017-11-07T03:35:34.288Z,73.99
2017-11-07T03:38:00.659Z,73.89
2017-11-07T03:40:27.705Z,73.61
2017-11-07T03:42:54.805Z,73.68
2017-11-07T03:45:21.157Z,73.52
2017-11-07T03:47:47.451Z,73.59
2017-11-07T03:50:13.746Z,73.81
2017-11-07T03:52:40.760Z,73.43
2017-11-07T03:55:07.053Z,73.46
2017-11-07T03:57:33.337Z,73.59
2017-11-07T03:59:59.672Z,73.32
2017-11-07T04:02:26.880Z,73.23
2017-11-07T04:04:53.210Z,73.32
2017-11-07T04:07:19.498Z,73.27
2017-11-07T04:09:46.592Z,73.27
2017-11-07T04:12:12.912Z,73.30
2017-11-07T04:14:39.189Z,73.64
2017-11-07T04:17:07.926Z,73.39
2017-11-07T04:19:34.319Z,72.97
2017-11-07T04:22:01.429Z,72.58
2017-11-07T04:24:27.699Z,73.52
2017-11-07T04:26:54.739Z,73.19
2017-11-07T04:29:21.081Z,72.83
2017-11-07T04:31:47.373Z,72.49
2017-11-07T04:34:13.745Z,72.61
2017-11-07T04:36:40.067Z,72.54
2017-11-07T04:39:07.135Z,72.75
2017-11-07T04:41:34.223Z,73.20
2017-11-07T04:44:00.620Z,73.24
2017-11-07T04:46:26.947Z,72.89
2017-11-07T04:48:53.232Z,73.12
2017-11-07T04:51:19.519Z,73.22
2017-11-07T04:53:45.902Z,73.50
2017-11-07T04:56:12.267Z,73.56
2017-11-07T04:58:38.596Z,73.47
2017-11-07T05:01:05.678Z,73.37
2017-11-07T05:03:32.960Z,73.49
2017-11-07T05:05:59.364Z,73.48
2017-11-07T05:08:25.666Z,72.92
2017-11-07T05:10:52.813Z,72.82
2017-11-07T05:13:19.956Z,72.61
2017-11-07T05:15:47.001Z,72.50
2017-11-07T05:18:14.129Z,72.99
2017-11-07T05:20:40.482Z,72.84
2017-11-07T05:23:07.576Z,72.05
2017-11-07T05:25:33.917Z,72.05
2017-11-07T05:28:00.305Z,72.05
2017-11-07T05:30:28.112Z,71.86
2017-11-07T05:32:54.456Z,71.78
2017-11-07T05:35:21.470Z,71.77
2017-11-07T05:37:47.841Z,71.98
2017-11-07T05:40:14.149Z,71.86
2017-11-07T05:42:40.597Z,71.83
2017-11-07T05:45:06.913Z,71.62
2017-11-07T05:47:33.374Z,72.13
2017-11-07T05:49:59.867Z,72.23
2017-11-07T05:52:26.227Z,72.32
2017-11-07T05:54:52.560Z,72.84
2017-11-07T05:57:18.862Z,72.01
2017-11-07T05:59:45.300Z,71.89
2017-11-07T06:02:13.464Z,71.80
2017-11-07T06:04:39.796Z,70.77
2017-11-07T06:07:06.205Z,70.76
2017-11-07T06:09:33.270Z,70.75
2017-11-07T06:11:59.665Z,70.41
2017-11-07T06:14:26.037Z,70.37
2017-11-07T06:16:52.413Z,70.89
2017-11-07T06:19:19.040Z,70.90
2017-11-07T06:21:45.332Z,70.73
2017-11-07T06:24:12.471Z,70.83
2017-11-07T06:26:39.597Z,70.90
2017-11-07T06:29:05.963Z,70.65
2017-11-07T06:31:33.318Z,71.03
2017-11-07T06:34:00.470Z,71.29
2017-11-07T06:36:26.810Z,71.77
2017-11-07T06:38:53.154Z,71.53
2017-11-07T06:41:19.566Z,71.57
2017-11-07T06:43:45.958Z,71.29
2017-11-07T06:46:12.382Z,70.38
2017-11-07T06:48:38.746Z,70.13
2017-11-07T06:51:05.831Z,70.31
2017-11-07T06:53:32.162Z,71.04
2017-11-07T06:55:58.484Z,71.24
2017-11-07T06:58:24.796Z,71.17
2017-11-07T07:00:52.788Z,71.16
2017-11-07T07:03:19.121Z,71.01
2017-11-07T07:05:45.505Z,70.68
2017-11-07T07:08:11.767Z,70.52
2017-11-07T07:10:38.866Z,70.55
2017-11-07T07:13:05.257Z,71.11
2017-11-07T07:15:31.621Z,70.06
2017-11-07T07:17:57.916Z,70.17
2017-11-07T07:20:24.281Z,70.09
2017-11-07T07:22:50.612Z,69.35
2017-11-07T07:25:16.886Z,69.65
2017-11-07T07:27:43.944Z,69.87
2017-11-07T07:30:10.999Z,69.49
2017-11-07T07:32:38.055Z,69.70
2017-11-07T07:35:04.522Z,70.18
2017-11-07T07:37:30.838Z,70.71
2017-11-07T07:39:57.208Z,70.73
2017-11-07T07:42:23.500Z,70.81
2017-11-07T07:44:49.814Z,70.57
2017-11-07T07:47:16.172Z,70.04
2017-11-07T07:49:42.529Z,70.36
2017-11-07T07:52:09.125Z,70.35
2017-11-07T07:54:35.432Z,71.13
2017-11-07T07:57:02.461Z,71.00
2017-11-07T07:59:28.772Z,71.28
2017-11-07T08:01:55.142Z,70.45
2017-11-07T08:04:22.232Z,69.94
2017-11-07T08:06:48.552Z,70.12
2017-11-07T08:09:14.894Z,70.14
2017-11-07T08:11:41.185Z,70.14
2017-11-07T08:14:08.256Z,70.79
2017-11-07T08:16:34.695Z,70.47
2017-11-07T08:19:01.099Z,70.32
2017-11-07T08:21:28.290Z,70.54
2017-11-07T08:23:54.631Z,70.30
2017-11-07T08:26:20.936Z,70.37
2017-11-07T08:28:47.337Z,70.87
2017-11-07T08:31:14.391Z,70.59
2017-11-07T08:33:40.677Z,70.26
2017-11-07T08:36:07.129Z,70.37
2017-11-07T08:38:33.413Z,69.89
2017-11-07T08:40:59.688Z,69.46
2017-11-07T08:43:25.987Z,68.74
2017-11-07T08:45:52.428Z,68.31
2017-11-07T08:48:18.802Z,68.37
2017-11-07T08:50:45.888Z,68.55
2017-11-07T08:53:12.213Z,68.21
2017-11-07T08:55:38.624Z,68.54
2017-11-07T08:58:05.686Z,68.09
2017-11-07T09:00:31.973Z,68.35
2017-11-07T09:02:58.321Z,68.30
2017-11-07T09:05:24.625Z,68.16
2017-11-07T09:07:50.906Z,67.96
2017-11-07T09:10:17.973Z,67.93
2017-11-07T09:12:44.305Z,67.74
2017-11-07T09:15:10.656Z,67.48
2017-11-07T09:17:37.035Z,67.39
2017-11-07T09:20:04.263Z,67.13
2017-11-07T09:22:30.727Z,66.74
2017-11-07T09:24:57.798Z,66.29
2017-11-07T09:27:24.109Z,65.90
2017-11-07T09:29:51.190Z,65.62
2017-11-07T09:32:17.512Z,65.67
2017-11-07T09:34:43.922Z,66.62
2017-11-07T09:37:10.957Z,65.86
2017-11-07T09:39:37.714Z,66.84
2017-11-07T09:42:04.748Z,66.84
2017-11-07T09:44:32.114Z,67.52
2017-11-07T09:46:59.164Z,67.99
2017-11-07T09:49:26.225Z,68.65
2017-11-07T09:51:52.521Z,67.97
2017-11-07T09:54:18.907Z,67.75
2017-11-07T09:56:45.482Z,67.69
2017-11-07T09:59:11.813Z,67.63
2017-11-07T10:01:38.069Z,66.93
2017-11-07T10:04:05.124Z,67.21
2017-11-07T10:06:32.290Z,66.96
2017-11-07T10:08:58.625Z,66.70
2017-11-07T10:11:24.928Z,66.18
2017-11-07T10:13:52.102Z,65.17
2017-11-07T10:16:18.390Z,64.17
2017-11-07T10:18:44.713Z,63.50
2017-11-07T10:21:11.077Z,62.72
2017-11-07T10:23:38.197Z,61.96
2017-11-07T10:26:04.512Z,61.17
2017-11-07T10:28:30.955Z,60.13
2017-11-07T10:30:57.972Z,59.63
2017-11-07T10:33:24.366Z,59.33
2017-11-07T10:35:51.417Z,58.99
2017-11-07T10:38:18.562Z,59.85
2017-11-07T10:40:45.604Z,60.68
2017-11-07T10:43:12.726Z,62.48
2017-11-07T10:45:46.234Z,63.48
2017-11-07T10:48:12.567Z,64.99
2017-11-07T10:50:38.866Z,65.01
2017-11-07T10:53:05.165Z,65.96
2017-11-07T10:55:31.508Z,66.23
2017-11-07T10:57:57.824Z,66.32
2017-11-07T11:00:25.793Z,66.24
2017-11-07T11:02:52.830Z,66.33
2017-11-07T11:05:19.874Z,66.25
2017-11-07T11:07:46.957Z,66.50
2017-11-07T11:10:13.274Z,66.15
2017-11-07T11:12:40.630Z,65.97
2017-11-07T11:15:06.928Z,65.90
2017-11-07T11:17:33.250Z,65.84
2017-11-07T11:19:59.577Z,65.95
2017-11-07T11:22:25.915Z,66.15
2017-11-07T11:24:52.270Z,65.40
2017-11-07T11:27:18.672Z,65.46
2017-11-07T11:29:44.970Z,65.54
2017-11-07T11:32:11.406Z,66.19
2017-11-07T11:34:37.732Z,66.14
2017-11-07T11:37:04.058Z,66.18
2017-11-07T11:39:30.553Z,65.53
2017-11-07T11:41:56.874Z,65.29
2017-11-07T11:44:23.171Z,64.72
2017-11-07T11:46:49.468Z,64.98
2017-11-07T11:49:16.503Z,64.87
2017-11-07T11:51:43.544Z,64.41
2017-11-07T11:54:09.835Z,64.54
2017-11-07T11:56:36.173Z,64.67
2017-11-07T11:59:02.575Z,64.58
2017-11-07T12:01:28.867Z,64.92
2017-11-07T12:03:55.155Z,64.59
2017-11-07T12:06:21.517Z,64.54
2017-11-07T12:08:49.322Z,64.54
2017-11-07T12:11:15.778Z,63.94
2017-11-07T12:13:42.170Z,64.27
2017-11-07T12:16:09.322Z,64.41
2017-11-07T12:18:36.402Z,64.27
2017-11-07T12:21:02.808Z,64.06
2017-11-07T12:23:29.880Z,63.58
2017-11-07T12:25:56.203Z,63.90
2017-11-07T12:28:22.589Z,63.45
2017-11-07T12:30:48.957Z,63.39
2017-11-07T12:33:15.450Z,63.16
2017-11-07T12:35:41.814Z,63.23
2017-11-07T12:38:08.971Z,62.99
2017-11-07T12:40:36.093Z,62.78
2017-11-07T12:43:02.414Z,63.24
2017-11-07T12:45:28.759Z,63.61
2017-11-07T12:47:55.073Z,63.87
2017-11-07T12:50:40.003Z,63.45
2017-11-07T12:53:06.356Z,63.49
2017-11-07T12:55:39.727Z,63.22
2017-11-07T12:58:06.051Z,64.63
2017-11-07T13:00:32.380Z,64.51
2017-11-07T13:02:58.699Z,64.37
2017-11-07T13:05:25.764Z,64.56
2017-11-07T13:07:52.095Z,63.88
2017-11-07T13:10:18.451Z,63.70
2017-11-07T13:12:44.780Z,63.24
2017-11-07T13:15:11.134Z,63.35
2017-11-07T13:17:37.449Z,63.49
2017-11-07T13:20:03.828Z,64.01
2017-11-07T13:22:30.925Z,64.39
2017-11-07T13:24:57.274Z,63.29
2017-11-07T13:27:23.565Z,63.13
2017-11-07T13:29:49.914Z,62.91
2017-11-07T13:32:16.253Z,63.05
2017-11-07T13:34:42.554Z,63.05
2017-11-07T13:37:08.839Z,63.08
2017-11-07T13:39:35.144Z,62.82
2017-11-07T13:42:01.563Z,62.59
2017-11-07T13:44:28.024Z,62.65
2017-11-07T13:46:54.381Z,62.46
2017-11-07T13:49:20.749Z,61.94
2017-11-07T13:51:47.149Z,61.90
2017-11-07T13:54:13.604Z,62.46
2017-11-07T13:56:40.655Z,62.32
2017-11-07T13:59:07.105Z,62.25
2017-11-07T14:01:33.422Z,62.80
2017-11-07T14:04:00.602Z,63.15
2017-11-07T14:06:26.997Z,63.50
2017-11-07T14:08:54.069Z,63.86
2017-11-07T14:11:20.396Z,64.21
2017-11-07T14:13:46.965Z,64.22
2017-11-07T14:16:13.501Z,65.58
2017-11-07T14:18:39.811Z,65.55
2017-11-07T14:21:06.110Z,65.61
2017-11-07T14:23:33.234Z,64.93
2017-11-07T14:25:59.528Z,64.92
2017-11-07T14:28:25.844Z,65.03
2017-11-07T14:30:52.166Z,64.93
2017-11-07T14:33:18.590Z,64.80
2017-11-07T14:35:45.650Z,64.96
2017-11-07T14:38:11.958Z,64.96
2017-11-07T14:40:39.056Z,64.99
2017-11-07T14:43:05.449Z,65.12
2017-11-07T14:45:32.537Z,65.13
2017-11-07T14:47:58.968Z,65.93
2017-11-07T14:50:26.351Z,65.53
2017-11-07T14:52:52.751Z,65.60
2017-11-07T14:55:19.185Z,65.82
2017-11-07T14:57:45.553Z,65.95
2017-11-07T15:00:12.049Z,65.42
2017-11-07T15:02:38.369Z,65.56
2017-11-07T15:05:04.722Z,65.90
2017-11-07T15:07:31.121Z,65.42
2017-11-07T15:09:57.448Z,65.35
2017-11-07T15:12:24.592Z,65.20
2017-11-07T15:14:51.747Z,65.13
2017-11-07T15:17:18.850Z,65.28
2017-11-07T15:19:45.188Z,65.35
2017-11-07T15:22:11.564Z,65.69
2017-11-07T15:24:38.606Z,65.93
2017-11-07T15:27:05.711Z,66.02
2017-11-07T15:29:32.034Z,66.54
2017-11-07T15:31:58.442Z,66.58
2017-11-07T15:34:24.754Z,66.39
2017-11-07T15:36:51.881Z,66.43
2017-11-07T15:39:18.174Z,66.98
2017-11-07T15:41:44.589Z,67.10
2017-11-07T15:44:10.937Z,66.75
2017-11-07T15:46:37.309Z,66.40
2017-11-07T15:49:03.670Z,66.51
2017-11-07T15:51:30.016Z,66.88
2017-11-07T15:53:56.367Z,66.80
2017-11-07T15:56:22.728Z,67.05
2017-11-07T15:58:49.109Z,66.80
2017-11-07T16:01:15.418Z,66.42
2017-11-07T16:03:42.443Z,66.46
2017-11-07T16:06:08.724Z,66.53
2017-11-07T16:08:35.012Z,66.80
2017-11-07T16:11:01.362Z,66.84
2017-11-07T16:13:28.418Z,66.65
2017-11-07T16:15:54.812Z,66.54
2017-11-07T16:18:21.208Z,66.53
2017-11-07T16:20:47.502Z,66.34
2017-11-07T16:23:14.643Z,66.64
2017-11-07T16:25:41.713Z,66.87
2017-11-07T16:28:08.214Z,67.11
2017-11-07T16:30:34.522Z,67.18
2017-11-07T16:33:00.818Z,66.79
2017-11-07T16:35:27.173Z,66.66
2017-11-07T16:37:53.458Z,66.62
2017-11-07T16:40:20.516Z,66.22
2017-11-07T16:42:47.597Z,66.79
2017-11-07T16:45:13.968Z,66.82
2017-11-07T16:47:40.289Z,66.47
2017-11-07T16:50:06.619Z,66.48
2017-11-07T16:52:32.988Z,66.57
2017-11-07T16:55:00.044Z,66.64
2017-11-07T16:57:26.394Z,66.67
2017-11-07T16:59:52.666Z,66.28
2017-11-07T17:02:19.138Z,66.53
2017-11-07T17:04:45.442Z,66.60
2017-11-07T17:07:12.646Z,66.48
2017-11-07T17:09:38.940Z,66.23
2017-11-07T17:12:05.985Z,66.43
2017-11-07T17:14:33.046Z,66.41
2017-11-07T17:17:00.107Z,66.65
2017-11-07T17:19:26.487Z,66.79
2017-11-07T17:21:59.890Z,66.91
2017-11-07T17:24:26.211Z,66.52
2017-11-07T17:26:52.552Z,66.82
2017-11-07T17:29:19.014Z,66.39
2017-11-07T17:31:45.422Z,66.39
2017-11-07T17:34:11.714Z,66.81
2017-11-07T17:36:38.020Z,66.55
2017-11-07T17:39:04.358Z,66.72
2017-11-07T17:41:30.667Z,67.25
2017-11-07T17:43:57.733Z,67.26
2017-11-07T17:46:25.235Z,67.39
2017-11-07T17:48:51.557Z,66.93
2017-11-07T17:51:17.923Z,66.38
2017-11-07T17:53:44.998Z,66.35
2017-11-07T17:56:11.315Z,66.91
2017-11-07T17:58:38.373Z,66.89
2017-11-07T18:01:04.799Z,67.00
2017-11-07T18:03:32.026Z,67.42
2017-11-07T18:05:58.319Z,68.00
2017-11-07T18:08:24.621Z,68.07
2017-11-07T18:10:50.940Z,68.55
2017-11-07T18:13:18.167Z,69.03
2017-11-07T18:15:45.956Z,69.25
2017-11-07T18:18:13.125Z,69.71
2017-11-07T18:20:39.428Z,70.57
2017-11-07T18:23:06.488Z,71.11
2017-11-07T18:25:33.641Z,72.04
2017-11-07T18:28:00.697Z,72.21
2017-11-07T18:30:28.764Z,72.46
2017-11-07T18:33:10.883Z,72.79
2017-11-07T18:35:37.200Z,73.31
2017-11-07T18:38:04.303Z,73.31
2017-11-07T18:40:30.644Z,73.08
2017-11-07T18:42:56.943Z,73.11
2017-11-07T18:45:30.344Z,72.89
2017-11-07T18:47:56.718Z,72.85
2017-11-07T18:50:23.105Z,72.91
2017-11-07T18:52:49.738Z,72.83
2017-11-07T18:55:16.319Z,72.74
2017-11-07T18:57:42.753Z,72.58
2017-11-07T19:00:09.056Z,71.76
2017-11-07T19:02:35.398Z,71.51
2017-11-07T19:05:01.755Z,71.20
2017-11-07T19:07:29.674Z,70.66
2017-11-07T19:09:56.056Z,70.96
2017-11-07T19:12:23.153Z,71.36
2017-11-07T19:14:49.552Z,71.17
2017-11-07T19:17:17.214Z,71.26
2017-11-07T19:19:44.212Z,71.73
2017-11-07T19:22:10.834Z,72.23
2017-11-07T19:24:37.313Z,72.76
2017-11-07T19:27:03.697Z,72.52
2017-11-07T19:29:30.074Z,72.51
2017-11-07T19:31:56.473Z,72.91
2017-11-07T19:34:22.833Z,73.32
2017-11-07T19:36:49.382Z,72.92
2017-11-07T19:39:16.469Z,73.55
2017-11-07T19:41:42.934Z,73.56
2017-11-07T19:44:09.256Z,73.37
2017-11-07T19:46:35.855Z,73.61
2017-11-07T19:49:04.052Z,74.14
2017-11-07T19:51:30.419Z,73.57
2017-11-07T19:53:56.815Z,73.87
2017-11-07T19:56:23.165Z,73.96
2017-11-07T19:58:49.560Z,73.83
2017-11-07T20:01:17.626Z,73.44
2017-11-07T20:03:44.764Z,73.11
2017-11-07T20:06:11.082Z,73.01
2017-11-07T20:08:38.950Z,73.50
2017-11-07T20:11:05.425Z,73.44
2017-11-07T20:13:31.786Z,73.73
2017-11-07T20:15:58.086Z,73.94
2017-11-07T20:18:24.445Z,73.89
2017-11-07T20:20:51.561Z,74.49
2017-11-07T20:23:18.912Z,74.87
2017-11-07T20:25:46.043Z,75.20
2017-11-07T20:28:13.969Z,74.92
2017-11-07T20:30:40.266Z,74.54
2017-11-07T20:33:06.659Z,75.34
2017-11-07T20:35:33.863Z,75.86
2017-11-07T20:38:00.851Z,76.27
2017-11-07T20:40:27.248Z,76.34
2017-11-07T20:42:53.597Z,76.67
2017-11-07T20:45:19.948Z,76.78
2017-11-07T20:47:46.290Z,76.97
2017-11-07T20:50:12.586Z,77.32
2017-11-07T20:52:38.880Z,77.41
2017-11-07T20:55:05.985Z,77.53
2017-11-07T20:57:32.250Z,77.71
2017-11-07T20:59:59.345Z,77.44
2017-11-07T21:02:25.673Z,77.52
2017-11-07T21:04:53.082Z,77.55
2017-11-07T21:07:20.153Z,78.07
2017-11-07T21:09:46.477Z,78.15
2017-11-07T21:12:12.906Z,78.32
2017-11-07T21:14:40.364Z,78.89
2017-11-07T21:17:07.442Z,79.02
2017-11-07T21:19:36.360Z,79.23
2017-11-07T21:22:02.792Z,79.18
2017-11-07T21:24:29.286Z,79.31
2017-11-07T21:26:55.827Z,79.36
2017-11-07T21:29:22.286Z,79.62
2017-11-07T21:31:48.572Z,79.86
2017-11-07T21:34:16.756Z,79.76
2017-11-07T21:36:43.041Z,79.45
2017-11-07T21:39:09.346Z,79.42
2017-11-07T21:41:35.664Z,79.47
2017-11-07T21:44:01.959Z,79.57
2017-11-07T21:46:28.992Z,79.10
2017-11-07T21:48:55.313Z,79.20
2017-11-07T21:51:21.593Z,79.24
2017-11-07T21:53:47.938Z,79.45
2017-11-07T21:56:14.284Z,79.18
2017-11-07T21:58:40.601Z,79.14
2017-11-07T22:01:06.935Z,79.11
2017-11-07T22:03:33.291Z,78.67
2017-11-07T22:05:59.562Z,78.53
2017-11-07T22:08:26.634Z,78.59
2017-11-07T22:10:54.942Z,78.80
2017-11-07T22:13:21.212Z,78.96
2017-11-07T22:15:48.567Z,79.39
2017-11-07T22:18:16.528Z,79.12
2017-11-07T22:20:42.850Z,79.09
2017-11-07T22:23:15.406Z,79.39
2017-11-07T22:25:42.728Z,79.44
2017-11-07T22:28:09.124Z,79.67
2017-11-07T22:30:35.446Z,79.80
2017-11-07T22:33:01.748Z,80.28
2017-11-07T22:35:28.056Z,80.49
2017-11-07T22:37:54.374Z,80.46
2017-11-07T22:40:20.675Z,80.60
2017-11-07T22:42:48.533Z,80.61
2017-11-07T22:45:14.810Z,80.25
2017-11-07T22:47:41.132Z,80.39
2017-11-07T22:50:07.441Z,80.45
2017-11-07T22:52:35.491Z,80.24
2017-11-07T22:55:01.947Z,80.12
2017-11-07T22:57:28.231Z,80.01
2017-11-07T22:59:54.537Z,79.95
2017-11-07T23:02:20.913Z,79.82
2017-11-07T23:04:47.223Z,79.34
2017-11-07T23:07:13.512Z,78.94
2017-11-07T23:09:40.607Z,78.49
2017-11-07T23:12:06.902Z,78.92
2017-11-07T23:14:35.138Z,79.43
2017-11-07T23:17:01.546Z,79.35
2017-11-07T23:19:27.844Z,79.59
2017-11-07T23:21:54.181Z,79.74
2017-11-07T23:24:20.444Z,80.41
2017-11-07T23:26:47.440Z,80.38
2017-11-07T23:29:14.529Z,80.22
2017-11-07T23:31:40.868Z,80.10
2017-11-07T23:34:07.143Z,80.38
2017-11-07T23:36:34.169Z,80.49
2017-11-07T23:39:00.465Z,80.22
2017-11-07T23:41:26.908Z,79.76
2017-11-07T23:43:53.181Z,79.05
2017-11-07T23:46:20.194Z,79.21
2017-11-07T23:48:46.517Z,79.39
2017-11-07T23:51:12.822Z,79.25
2017-11-07T23:53:40.147Z,79.31
2017-11-07T23:56:07.186Z,79.77
2017-11-07T23:58:36.374Z,80.11
